createdAt,value
2022-08-10T00:01:54.335Z,2.10
2022-08-10T00:04:23.890Z,2.20
2022-08-10T00:06:53.664Z,2.42
2022-08-10T00:09:24.954Z,2.40
2022-08-10T00:11:56.253Z,2.30
2022-08-10T00:14:25.097Z,2.47
2022-08-10T00:16:56.845Z,2.53
2022-08-10T00:19:28.627Z,1.95
2022-08-10T00:22:17.275Z,2.35
2022-08-10T00:24:47.447Z,2.30
2022-08-10T00:27:51.742Z,2.70
2022-08-10T00:30:06.729Z,2.72
2022-08-10T00:32:35.369Z,2.65
2022-08-10T00:35:06.488Z,2.20
2022-08-10T00:37:35.294Z,2.20
2022-08-10T00:40:07.204Z,2.42
2022-08-10T00:42:43.715Z,2.67
2022-08-10T00:45:23.179Z,2.88
2022-08-10T00:47:55.327Z,2.40
2022-08-10T00:50:37.426Z,2.55
2022-08-10T00:53:18.611Z,2.60
2022-08-10T00:56:35.813Z,2.60
2022-08-10T00:58:48.471Z,2.80
2022-08-10T01:02:08.857Z,2.80
2022-08-10T01:04:58.715Z,2.58
2022-08-10T01:07:35.253Z,2.65
2022-08-10T01:10:11.790Z,3.03
2022-08-10T01:15:50.970Z,2.80
2022-08-10T01:18:33.763Z,2.63
2022-08-10T01:21:53.996Z,2.55
2022-08-10T01:24:47.670Z,3.05
2022-08-10T01:27:40.298Z,2.70
2022-08-10T01:36:39.100Z,3.08
2022-08-10T01:43:18.643Z,2.78
2022-08-10T01:46:22.770Z,2.40
2022-08-10T01:55:45.658Z,2.85
2022-08-10T02:02:27.267Z,2.97
2022-08-10T05:57:55.911Z,3.78
2022-08-10T06:00:36.660Z,2.95
2022-08-10T06:03:24.039Z,3.13
2022-08-10T06:06:18.961Z,3.50
2022-08-10T06:09:02.186Z,3.30
2022-08-10T06:12:27.647Z,3.20
2022-08-10T06:14:37.234Z,2.72
2022-08-10T06:17:07.050Z,3.30
2022-08-10T06:19:36.227Z,2.97
2022-08-10T06:22:06.766Z,3.30
2022-08-10T06:25:02.743Z,3.20
2022-08-10T06:27:34.284Z,2.80
2022-08-10T06:30:04.054Z,2.88
2022-08-10T06:32:51.321Z,2.33
2022-08-10T06:35:20.116Z,2.70
2022-08-10T06:37:50.925Z,2.92
2022-08-10T06:40:22.187Z,2.60
2022-08-10T06:42:52.161Z,2.55
2022-08-10T06:45:22.142Z,3.03
2022-08-10T06:47:52.645Z,3.45
2022-08-10T06:50:35.112Z,2.80
2022-08-10T06:53:16.010Z,2.90
2022-08-10T06:55:50.296Z,3.00
2022-08-10T06:58:27.274Z,2.35
2022-08-10T07:00:57.262Z,2.90
2022-08-10T07:03:28.161Z,2.50
2022-08-10T07:05:57.037Z,2.42
2022-08-10T07:08:25.784Z,2.30
2022-08-10T07:10:56.380Z,2.53
2022-08-10T07:14:16.647Z,2.50
2022-08-10T07:16:14.643Z,2.60
2022-08-10T07:18:43.748Z,2.85
2022-08-10T07:21:13.449Z,2.30
2022-08-10T07:23:58.871Z,2.17
2022-08-10T07:26:30.688Z,2.40
2022-08-10T07:29:00.030Z,2.15
2022-08-10T07:31:36.143Z,2.03
2022-08-10T07:34:28.417Z,2.50
2022-08-10T07:37:00.683Z,2.22
2022-08-10T07:40:03.595Z,1.90
2022-08-10T07:42:21.315Z,2.20
2022-08-10T07:44:50.550Z,2.13
2022-08-10T07:47:52.716Z,2.22
2022-08-10T07:50:12.676Z,2.10
2022-08-10T07:52:41.331Z,2.00
2022-08-10T07:55:10.214Z,1.90
2022-08-10T07:57:40.373Z,2.00
2022-08-10T08:00:10.696Z,1.70
2022-08-10T08:02:41.444Z,1.85
2022-08-10T08:05:13.655Z,2.03
2022-08-10T08:08:02.402Z,2.25
2022-08-10T08:10:31.267Z,1.65
2022-08-10T08:13:01.483Z,2.10
2022-08-10T08:16:20.899Z,1.92
2022-08-10T08:18:25.279Z,1.90
2022-08-10T08:20:55.281Z,1.90
2022-08-10T08:24:08.457Z,1.80
2022-08-10T08:26:15.524Z,1.75
2022-08-10T08:28:45.909Z,1.80
2022-08-10T08:31:15.636Z,1.90
2022-08-10T08:33:45.277Z,1.90
2022-08-10T08:36:16.149Z,2.05
2022-08-10T08:38:44.874Z,2.08
2022-08-10T08:41:20.274Z,1.67
2022-08-10T08:43:58.163Z,1.92
2022-08-10T08:46:47.728Z,2.10
2022-08-10T08:50:05.240Z,2.10
2022-08-10T08:52:20.462Z,1.83
2022-08-10T08:54:54.891Z,2.17
2022-08-10T08:57:49.879Z,2.28
2022-08-10T09:00:20.138Z,2.27
2022-08-10T09:03:10.041Z,2.20
2022-08-10T09:05:58.913Z,2.15
2022-08-10T09:08:55.956Z,1.83
2022-08-10T09:11:50.354Z,1.70
2022-08-10T09:14:25.866Z,1.90
2022-08-10T09:16:58.809Z,1.90
2022-08-10T09:19:36.192Z,1.83
2022-08-10T09:22:18.487Z,1.80
2022-08-10T09:24:50.583Z,1.90
2022-08-10T09:27:21.032Z,1.80
2022-08-10T09:29:54.396Z,1.90
2022-08-10T09:36:17.198Z,2.17
2022-08-10T09:36:24.975Z,1.90
2022-08-10T09:38:20.034Z,2.00
2022-08-10T09:41:00.689Z,2.20
2022-08-10T09:43:36.490Z,2.10
2022-08-10T09:46:11.729Z,2.00
2022-08-10T09:48:45.312Z,1.60
2022-08-10T09:54:06.204Z,1.77
2022-08-10T09:56:38.221Z,1.90
2022-08-10T09:59:59.184Z,1.55
2022-08-10T10:02:03.495Z,1.83
2022-08-10T10:04:38.976Z,1.80
2022-08-10T10:07:08.211Z,1.80
2022-08-10T10:09:40.260Z,2.00
2022-08-10T10:12:13.748Z,2.00
2022-08-10T10:15:08.861Z,1.95
2022-08-10T10:17:43.299Z,1.90
2022-08-10T10:20:19.670Z,1.85
2022-08-10T10:22:54.306Z,1.80
2022-08-10T10:25:49.804Z,1.92
2022-08-10T10:28:20.852Z,1.58
2022-08-10T10:30:54.953Z,1.92
2022-08-10T10:33:28.737Z,1.83
2022-08-10T10:36:01.592Z,1.90
2022-08-10T10:38:34.298Z,2.13
2022-08-10T10:41:09.998Z,1.75
2022-08-10T10:43:44.187Z,1.85
2022-08-10T10:46:18.289Z,2.13
2022-08-10T10:48:56.265Z,1.80
2022-08-10T10:51:29.256Z,1.90
2022-08-10T10:54:02.878Z,1.90
2022-08-10T10:56:37.360Z,1.63
2022-08-10T10:59:33.341Z,1.45
2022-08-10T11:02:03.371Z,2.25
2022-08-10T11:04:37.048Z,1.95
2022-08-10T11:07:14.135Z,1.85
2022-08-10T11:10:04.744Z,2.17
2022-08-10T11:12:43.530Z,1.80
2022-08-10T11:15:17.925Z,1.42
2022-08-10T11:17:50.133Z,1.87
2022-08-10T11:20:21.094Z,1.63
2022-08-10T11:22:55.005Z,1.90
2022-08-10T11:25:24.815Z,2.03
2022-08-10T11:27:57.641Z,1.88
2022-08-10T11:30:28.212Z,2.20
2022-08-10T11:33:04.946Z,1.60
2022-08-10T11:35:38.049Z,1.75
2022-08-10T11:38:34.537Z,1.92
2022-08-10T11:42:06.096Z,1.70
2022-08-10T11:43:58.839Z,1.90
2022-08-10T11:46:31.715Z,1.83
2022-08-10T11:51:36.442Z,1.98
2022-08-10T11:54:09.573Z,1.60
2022-08-10T11:56:41.238Z,2.13
2022-08-10T11:59:27.383Z,2.03
2022-08-10T12:01:56.962Z,2.13
2022-08-10T12:04:25.907Z,2.03
2022-08-10T12:06:55.938Z,1.77
2022-08-10T12:10:08.577Z,1.75
2022-08-10T12:12:15.342Z,2.28
2022-08-10T12:14:46.742Z,1.85
2022-08-10T12:17:17.195Z,2.00
2022-08-10T12:20:01.136Z,2.20
2022-08-10T12:22:33.236Z,1.83
2022-08-10T12:25:05.599Z,2.10
2022-08-10T12:27:38.627Z,1.80
2022-08-10T12:30:08.149Z,1.80
2022-08-10T12:32:40.686Z,1.92
2022-08-10T12:35:21.752Z,1.80
2022-08-10T12:37:56.960Z,2.10
2022-08-10T12:40:37.054Z,2.05
2022-08-10T12:44:05.423Z,2.05
2022-08-10T12:46:06.763Z,2.03
2022-08-10T12:48:37.697Z,2.35
2022-08-10T12:51:07.803Z,1.92
2022-08-10T12:53:43.116Z,2.10
2022-08-10T12:56:12.933Z,1.77
2022-08-10T12:58:57.452Z,2.10
2022-08-10T13:02:09.805Z,1.90
2022-08-10T13:04:23.099Z,2.00
2022-08-10T13:06:53.139Z,1.92
2022-08-10T13:09:23.244Z,1.63
2022-08-10T13:12:35.887Z,2.63
2022-08-10T13:14:49.867Z,2.00
2022-08-10T13:17:22.870Z,1.73
2022-08-10T13:19:56.333Z,2.10
2022-08-10T13:22:27.095Z,2.00
2022-08-10T13:24:56.387Z,1.70
2022-08-10T13:28:01.243Z,2.22
2022-08-10T13:30:19.710Z,1.98
2022-08-10T13:33:06.718Z,2.17
2022-08-10T13:35:35.695Z,1.85
2022-08-10T13:38:05.313Z,2.10
2022-08-10T13:40:34.722Z,2.00
2022-08-10T13:43:08.001Z,1.90
2022-08-10T13:45:42.334Z,1.90
2022-08-10T13:48:15.602Z,2.22
2022-08-10T13:50:44.247Z,2.03
2022-08-10T13:53:15.494Z,2.05
2022-08-10T13:55:54.155Z,2.28
2022-08-10T13:58:26.644Z,2.20
2022-08-10T14:00:56.049Z,1.80
2022-08-10T14:03:24.913Z,1.92
2022-08-10T14:05:54.221Z,2.55
2022-08-10T14:08:28.526Z,2.13
2022-08-10T14:11:08.347Z,1.92
2022-08-10T14:13:43.904Z,2.25
2022-08-10T14:16:12.607Z,2.05
2022-08-10T14:18:42.259Z,1.88
2022-08-10T14:21:10.853Z,1.95
2022-08-10T14:23:41.962Z,2.05
2022-08-10T14:26:18.041Z,1.95
2022-08-10T14:28:50.923Z,2.00
2022-08-10T14:31:22.244Z,2.30
2022-08-10T14:33:53.321Z,2.00
2022-08-10T14:36:34.245Z,1.65
2022-08-10T14:39:04.326Z,1.95
2022-08-10T14:42:03.288Z,1.80
2022-08-10T14:44:24.334Z,1.88
2022-08-10T14:46:57.355Z,2.13
2022-08-10T14:49:27.320Z,1.73
2022-08-10T14:52:01.252Z,2.20
2022-08-10T14:54:30.562Z,1.92
2022-08-10T14:57:11.381Z,1.90
2022-08-10T15:00:24.111Z,1.95
2022-08-10T15:02:40.873Z,2.63
2022-08-10T15:05:20.462Z,1.73
2022-08-10T15:07:59.261Z,1.88
2022-08-10T15:10:28.792Z,2.20
2022-08-10T15:12:58.899Z,1.95
2022-08-10T15:15:31.800Z,1.98
2022-08-10T15:18:18.989Z,2.08
2022-08-10T15:20:57.021Z,2.03
2022-08-10T15:23:30.774Z,1.85
2022-08-10T15:26:03.010Z,2.05
2022-08-10T15:29:23.950Z,1.98
2022-08-10T15:31:34.725Z,1.90
2022-08-10T15:34:22.086Z,2.00
2022-08-10T15:37:40.062Z,2.03
2022-08-10T15:40:25.174Z,1.65
2022-08-10T15:42:58.455Z,2.00
2022-08-10T15:45:27.160Z,2.20
2022-08-10T15:48:03.121Z,1.98
2022-08-10T15:50:34.104Z,2.13
2022-08-10T15:53:16.027Z,1.83
2022-08-10T15:55:48.750Z,1.80
2022-08-10T15:58:38.982Z,1.77
2022-08-10T16:02:14.355Z,1.95
2022-08-10T16:04:08.368Z,2.28
2022-08-10T16:06:48.247Z,2.30
2022-08-10T16:10:24.454Z,1.98
2022-08-10T16:12:14.397Z,2.00
2022-08-10T16:14:46.608Z,1.88
2022-08-10T16:17:15.201Z,2.00
2022-08-10T16:19:49.976Z,1.77
2022-08-10T16:22:36.574Z,1.98
2022-08-10T16:25:13.218Z,2.10
2022-08-10T16:27:42.471Z,2.15
2022-08-10T16:30:11.193Z,2.00
2022-08-10T16:32:40.873Z,2.10
2022-08-10T16:35:12.176Z,2.10
2022-08-10T16:37:57.388Z,2.03
2022-08-10T16:40:28.673Z,2.17
2022-08-10T16:42:57.837Z,2.17
2022-08-10T16:45:32.492Z,2.15
2022-08-10T16:48:01.184Z,1.92
2022-08-10T16:50:31.558Z,2.20
2022-08-10T16:53:02.247Z,2.28
2022-08-10T16:55:49.071Z,2.13
2022-08-10T16:58:20.392Z,1.70
2022-08-10T17:00:49.030Z,2.40
2022-08-10T17:04:05.481Z,2.50
2022-08-10T17:06:13.509Z,2.20
2022-08-10T17:08:48.085Z,2.20
2022-08-10T17:11:17.549Z,2.10
2022-08-10T17:13:46.419Z,1.83
2022-08-10T17:16:17.049Z,2.35
2022-08-10T17:18:53.770Z,2.20
2022-08-10T17:21:24.293Z,2.13
2022-08-10T17:23:54.050Z,2.20
2022-08-10T17:26:28.336Z,2.03
2022-08-10T17:29:08.422Z,2.30
2022-08-10T17:31:53.452Z,2.22
2022-08-10T17:34:25.139Z,2.00
2022-08-10T17:36:58.776Z,2.10
2022-08-10T17:39:31.434Z,2.50
2022-08-10T17:42:02.077Z,2.13
2022-08-10T17:44:31.521Z,1.88
2022-08-10T17:47:10.967Z,1.92
2022-08-10T17:49:40.218Z,2.00
2022-08-10T17:52:12.271Z,1.90
2022-08-10T17:54:44.159Z,2.28
2022-08-10T17:57:18.423Z,2.50
2022-08-10T17:59:47.668Z,2.90
2022-08-10T18:02:18.149Z,2.70
2022-08-10T18:04:49.489Z,1.83
2022-08-10T18:07:21.342Z,2.17
2022-08-10T18:09:51.581Z,2.15
2022-08-10T18:12:27.737Z,2.10
2022-08-10T18:15:02.375Z,2.15
2022-08-10T18:17:38.466Z,2.30
2022-08-10T18:20:09.362Z,2.40
2022-08-10T18:22:44.945Z,2.08
2022-08-10T18:25:18.380Z,2.25
2022-08-10T18:28:00.937Z,2.40
2022-08-10T18:30:36.618Z,2.28
2022-08-10T18:33:06.388Z,2.03
2022-08-10T18:35:35.449Z,2.10
2022-08-10T18:38:06.372Z,2.38
2022-08-10T18:40:36.878Z,2.10
2022-08-10T18:44:04.337Z,2.13
2022-08-10T18:45:56.900Z,2.35
2022-08-10T18:48:28.546Z,2.30
2022-08-10T18:50:57.979Z,2.33
2022-08-10T18:53:36.167Z,2.50
2022-08-10T18:56:13.860Z,2.50
2022-08-10T18:58:53.012Z,2.63
2022-08-10T19:01:34.628Z,2.55
2022-08-10T19:04:08.069Z,2.10
2022-08-10T19:09:45.711Z,3.13
2022-08-10T19:12:31.087Z,2.35
2022-08-10T19:15:06.575Z,2.50
2022-08-10T19:18:01.388Z,2.65
2022-08-10T19:20:32.205Z,2.60
2022-08-10T19:23:05.922Z,2.33
2022-08-10T19:26:41.320Z,2.10
2022-08-10T19:28:32.457Z,2.30
2022-08-10T19:31:04.802Z,2.50
2022-08-10T19:33:37.531Z,2.40
2022-08-10T19:36:10.379Z,2.20
2022-08-10T19:38:50.733Z,2.40
2022-08-10T19:41:32.498Z,2.42
2022-08-10T19:44:14.579Z,2.72
2022-08-10T19:46:45.558Z,3.17
2022-08-10T19:49:18.245Z,2.92
2022-08-10T19:51:51.134Z,2.55
2022-08-10T19:54:22.366Z,2.45
2022-08-10T19:56:56.891Z,2.35
2022-08-10T20:00:14.952Z,2.60
2022-08-10T20:02:23.685Z,2.80
2022-08-10T20:04:57.892Z,2.53
2022-08-10T20:07:30.125Z,2.60
2022-08-10T20:10:01.773Z,2.90
2022-08-10T20:12:36.083Z,3.00
2022-08-10T20:15:07.737Z,2.75
2022-08-10T20:17:52.460Z,2.60
2022-08-10T20:20:30.475Z,2.40
2022-08-10T20:23:03.267Z,2.88
2022-08-10T20:25:32.346Z,3.20
2022-08-10T20:28:05.501Z,2.60
2022-08-10T20:30:35.838Z,2.53
2022-08-10T20:33:10.007Z,2.58
2022-08-10T20:35:46.202Z,3.03
2022-08-10T20:38:21.667Z,2.90
2022-08-10T20:40:58.788Z,3.20
2022-08-10T20:43:38.060Z,2.88
2022-08-10T20:46:19.851Z,3.25
2022-08-10T20:49:09.566Z,3.25
2022-08-10T20:51:59.405Z,3.28
2022-08-10T20:58:13.703Z,3.22
2022-08-10T21:08:46.237Z,3.45
2022-08-10T21:14:41.941Z,3.13
2022-08-10T22:13:14.827Z,3.15
2022-08-10T22:16:10.554Z,3.20
2022-08-10T22:19:02.706Z,3.67
2022-08-10T22:21:55.791Z,3.20
2022-08-10T22:24:45.113Z,3.22
2022-08-10T22:27:47.026Z,3.38
2022-08-10T22:30:35.003Z,2.90
2022-08-10T22:33:30.536Z,3.20
2022-08-10T22:36:29.191Z,3.28
2022-08-10T22:40:05.590Z,3.03
2022-08-10T22:42:59.003Z,3.55
2022-08-10T22:45:41.173Z,3.38
2022-08-10T22:48:28.957Z,3.78
2022-08-10T22:50:59.619Z,3.83
2022-08-10T22:53:50.639Z,4.05
2022-08-10T22:56:40.253Z,3.83
2022-08-10T22:59:09.159Z,3.53
2022-08-10T23:02:08.864Z,3.30
2022-08-10T23:04:44.986Z,3.42
2022-08-10T23:07:18.142Z,3.47
2022-08-10T23:09:48.997Z,3.67
2022-08-10T23:12:18.895Z,3.60
2022-08-10T23:14:59.323Z,3.13
2022-08-10T23:18:00.890Z,3.42
2022-08-10T23:20:32.662Z,3.20
2022-08-10T23:23:09.088Z,3.30
2022-08-10T23:25:56.115Z,3.38
2022-08-10T23:28:39.181Z,3.13
2022-08-10T23:31:14.539Z,3.17
2022-08-10T23:33:43.897Z,3.53
2022-08-10T23:36:34.578Z,3.30
2022-08-10T23:39:26.861Z,3.67
2022-08-10T23:41:55.994Z,3.70
2022-08-10T23:44:24.663Z,3.22
2022-08-10T23:46:53.691Z,3.53
2022-08-10T23:49:23.297Z,3.78
2022-08-10T23:51:55.719Z,3.38
2022-08-10T23:54:26.014Z,3.55
2022-08-10T23:56:56.604Z,3.60
2022-08-10T23:59:29.910Z,3.95
